sensor_id;sensor_type;location;lat;lon;timestamp;P1;durP1;ratioP1;P2;durP2;ratioP2
74241;SDS011;62599;49.146;10.426;2023-02-20T00:01:50;3.50;;;1.85;;
74241;SDS011;62599;49.146;10.426;2023-02-20T00:04:18;4.38;;;2.20;;
74241;SDS011;62599;49.146;10.426;2023-02-20T00:06:44;5.88;;;2.28;;
74241;SDS011;62599;49.146;10.426;2023-02-20T00:09:09;4.93;;;2.80;;
74241;SDS011;62599;49.146;10.426;2023-02-20T00:11:35;5.63;;;2.70;;
74241;SDS011;62599;49.146;10.426;2023-02-20T00:14:01;4.50;;;2.63;;
74241;SDS011;62599;49.146;10.426;2023-02-20T00:16:27;6.80;;;2.75;;
74241;SDS011;62599;49.146;10.426;2023-02-20T00:18:52;6.30;;;2.63;;
74241;SDS011;62599;49.146;10.426;2023-02-20T00:21:17;11.73;;;3.23;;
74241;SDS011;62599;49.146;10.426;2023-02-20T00:23:43;5.20;;;2.30;;
74241;SDS011;62599;49.146;10.426;2023-02-20T00:26:11;3.20;;;1.43;;
74241;SDS011;62599;49.146;10.426;2023-02-20T00:28:39;4.53;;;2.78;;
74241;SDS011;62599;49.146;10.426;2023-02-20T00:31:05;13.57;;;2.70;;
74241;SDS011;62599;49.146;10.426;2023-02-20T00:33:32;3.58;;;1.70;;
74241;SDS011;62599;49.146;10.426;2023-02-20T00:35:57;2.92;;;1.35;;
74241;SDS011;62599;49.146;10.426;2023-02-20T00:38:23;4.85;;;2.38;;
74241;SDS011;62599;49.146;10.426;2023-02-20T00:40:48;3.43;;;1.77;;
74241;SDS011;62599;49.146;10.426;2023-02-20T00:43:14;8.85;;;2.40;;
74241;SDS011;62599;49.146;10.426;2023-02-20T00:45:39;5.88;;;2.30;;
74241;SDS011;62599;49.146;10.426;2023-02-20T00:48:04;4.85;;;1.88;;
74241;SDS011;62599;49.146;10.426;2023-02-20T00:50:30;4.88;;;1.92;;
74241;SDS011;62599;49.146;10.426;2023-02-20T00:52:55;3.63;;;1.97;;
74241;SDS011;62599;49.146;10.426;2023-02-20T00:55:21;4.50;;;2.57;;
74241;SDS011;62599;49.146;10.426;2023-02-20T00:57:46;5.30;;;1.80;;
74241;SDS011;62599;49.146;10.426;2023-02-20T01:00:16;8.23;;;2.28;;
74241;SDS011;62599;49.146;10.426;2023-02-20T01:02:44;5.65;;;1.67;;
74241;SDS011;62599;49.146;10.426;2023-02-20T01:05:10;4.97;;;2.35;;
74241;SDS011;62599;49.146;10.426;2023-02-20T01:07:35;6.78;;;2.35;;
74241;SDS011;62599;49.146;10.426;2023-02-20T01:10:00;11.97;;;3.10;;
74241;SDS011;62599;49.146;10.426;2023-02-20T01:12:26;6.53;;;3.17;;
74241;SDS011;62599;49.146;10.426;2023-02-20T01:14:51;4.80;;;2.55;;
74241;SDS011;62599;49.146;10.426;2023-02-20T01:17:17;2.20;;;1.50;;
74241;SDS011;62599;49.146;10.426;2023-02-20T01:19:42;4.18;;;2.95;;
74241;SDS011;62599;49.146;10.426;2023-02-20T01:22:08;4.25;;;2.30;;
74241;SDS011;62599;49.146;10.426;2023-02-20T01:24:34;6.93;;;2.38;;
74241;SDS011;62599;49.146;10.426;2023-02-20T01:26:59;7.00;;;2.13;;
74241;SDS011;62599;49.146;10.426;2023-02-20T01:29:24;4.03;;;2.53;;
74241;SDS011;62599;49.146;10.426;2023-02-20T01:31:50;6.67;;;2.43;;
74241;SDS011;62599;49.146;10.426;2023-02-20T01:34:17;7.22;;;2.30;;
74241;SDS011;62599;49.146;10.426;2023-02-20T01:36:47;4.60;;;2.30;;
74241;SDS011;62599;49.146;10.426;2023-02-20T01:39:18;13.02;;;2.25;;
74241;SDS011;62599;49.146;10.426;2023-02-20T01:41:46;5.38;;;2.83;;
74241;SDS011;62599;49.146;10.426;2023-02-20T01:44:20;7.25;;;2.25;;
74241;SDS011;62599;49.146;10.426;2023-02-20T01:46:49;7.85;;;2.85;;
74241;SDS011;62599;49.146;10.426;2023-02-20T01:49:24;2.85;;;1.55;;
74241;SDS011;62599;49.146;10.426;2023-02-20T01:52:07;5.80;;;2.15;;
74241;SDS011;62599;49.146;10.426;2023-02-20T01:57:06;6.85;;;2.40;;
74241;SDS011;62599;49.146;10.426;2023-02-20T01:59:37;5.00;;;2.28;;
74241;SDS011;62599;49.146;10.426;2023-02-20T02:02:04;5.85;;;2.08;;
74241;SDS011;62599;49.146;10.426;2023-02-20T02:04:30;2.28;;;1.33;;
74241;SDS011;62599;49.146;10.426;2023-02-20T02:06:58;8.10;;;2.55;;
74241;SDS011;62599;49.146;10.426;2023-02-20T02:12:06;14.95;;;4.05;;
74241;SDS011;62599;49.146;10.426;2023-02-20T02:14:32;4.68;;;2.42;;
74241;SDS011;62599;49.146;10.426;2023-02-20T02:17:05;4.83;;;2.13;;
74241;SDS011;62599;49.146;10.426;2023-02-20T02:41:59;7.93;;;2.53;;
74241;SDS011;62599;49.146;10.426;2023-02-20T02:44:53;4.85;;;2.15;;
74241;SDS011;62599;49.146;10.426;2023-02-20T02:47:30;5.18;;;2.78;;
74241;SDS011;62599;49.146;10.426;2023-02-20T02:50:04;5.57;;;1.85;;
74241;SDS011;62599;49.146;10.426;2023-02-20T02:52:50;2.47;;;1.75;;
74241;SDS011;62599;49.146;10.426;2023-02-20T02:55:25;3.75;;;1.92;;
74241;SDS011;62599;49.146;10.426;2023-02-20T02:57:52;5.00;;;2.58;;
74241;SDS011;62599;49.146;10.426;2023-02-20T03:05:18;5.07;;;2.25;;
74241;SDS011;62599;49.146;10.426;2023-02-20T03:07:50;6.07;;;1.88;;
74241;SDS011;62599;49.146;10.426;2023-02-20T03:10:20;7.28;;;2.35;;
74241;SDS011;62599;49.146;10.426;2023-02-20T03:12:55;6.47;;;2.08;;
74241;SDS011;62599;49.146;10.426;2023-02-20T03:15:34;3.92;;;2.28;;
74241;SDS011;62599;49.146;10.426;2023-02-20T03:20:55;4.25;;;2.50;;
74241;SDS011;62599;49.146;10.426;2023-02-20T03:23:24;7.30;;;2.45;;
74241;SDS011;62599;49.146;10.426;2023-02-20T03:25:58;8.43;;;2.25;;
74241;SDS011;62599;49.146;10.426;2023-02-20T03:28:29;4.03;;;2.42;;
74241;SDS011;62599;49.146;10.426;2023-02-20T03:31:04;7.82;;;3.53;;
74241;SDS011;62599;49.146;10.426;2023-02-20T03:33:37;4.40;;;2.60;;
74241;SDS011;62599;49.146;10.426;2023-02-20T03:36:32;4.47;;;2.70;;
74241;SDS011;62599;49.146;10.426;2023-02-20T03:39:17;9.32;;;2.63;;
74241;SDS011;62599;49.146;10.426;2023-02-20T03:42:06;8.52;;;1.70;;
74241;SDS011;62599;49.146;10.426;2023-02-20T03:44:53;4.10;;;2.75;;
74241;SDS011;62599;49.146;10.426;2023-02-20T03:47:21;2.90;;;1.50;;
74241;SDS011;62599;49.146;10.426;2023-02-20T03:49:49;8.52;;;2.72;;
74241;SDS011;62599;49.146;10.426;2023-02-20T03:52:38;4.50;;;3.70;;
74241;SDS011;62599;49.146;10.426;2023-02-20T03:55:05;2.88;;;1.58;;
74241;SDS011;62599;49.146;10.426;2023-02-20T03:57:34;4.40;;;1.80;;
74241;SDS011;62599;49.146;10.426;2023-02-20T04:00:17;6.20;;;1.70;;
74241;SDS011;62599;49.146;10.426;2023-02-20T04:02:47;2.92;;;1.67;;
74241;SDS011;62599;49.146;10.426;2023-02-20T04:05:19;4.15;;;1.88;;
74241;SDS011;62599;49.146;10.426;2023-02-20T04:10:28;10.02;;;2.85;;
74241;SDS011;62599;49.146;10.426;2023-02-20T04:12:59;8.68;;;2.58;;
74241;SDS011;62599;49.146;10.426;2023-02-20T04:15:26;3.05;;;1.77;;
74241;SDS011;62599;49.146;10.426;2023-02-20T04:17:54;3.38;;;2.05;;
74241;SDS011;62599;49.146;10.426;2023-02-20T04:20:24;3.10;;;1.92;;
74241;SDS011;62599;49.146;10.426;2023-02-20T04:22:50;9.00;;;2.67;;
74241;SDS011;62599;49.146;10.426;2023-02-20T04:25:42;9.98;;;2.53;;
74241;SDS011;62599;49.146;10.426;2023-02-20T04:28:14;4.40;;;1.85;;
74241;SDS011;62599;49.146;10.426;2023-02-20T04:30:41;6.75;;;2.30;;
74241;SDS011;62599;49.146;10.426;2023-02-20T04:33:08;7.13;;;3.45;;
74241;SDS011;62599;49.146;10.426;2023-02-20T04:35:35;5.57;;;2.30;;
74241;SDS011;62599;49.146;10.426;2023-02-20T04:38:01;6.10;;;2.07;;
74241;SDS011;62599;49.146;10.426;2023-02-20T04:40:26;4.17;;;2.03;;
74241;SDS011;62599;49.146;10.426;2023-02-20T04:42:51;12.00;;;2.43;;
74241;SDS011;62599;49.146;10.426;2023-02-20T04:45:17;4.93;;;2.60;;
74241;SDS011;62599;49.146;10.426;2023-02-20T04:47:43;1.88;;;1.25;;
74241;SDS011;62599;49.146;10.426;2023-02-20T04:50:12;3.78;;;2.72;;
74241;SDS011;62599;49.146;10.426;2023-02-20T04:52:43;2.95;;;1.73;;
74241;SDS011;62599;49.146;10.426;2023-02-20T04:55:09;7.13;;;3.05;;
74241;SDS011;62599;49.146;10.426;2023-02-20T04:57:34;2.78;;;1.83;;
74241;SDS011;62599;49.146;10.426;2023-02-20T04:59:59;8.43;;;2.75;;
74241;SDS011;62599;49.146;10.426;2023-02-20T05:02:25;4.40;;;1.65;;
74241;SDS011;62599;49.146;10.426;2023-02-20T05:04:50;5.57;;;2.97;;
74241;SDS011;62599;49.146;10.426;2023-02-20T05:07:16;8.63;;;2.37;;
74241;SDS011;62599;49.146;10.426;2023-02-20T05:09:42;5.70;;;2.78;;
74241;SDS011;62599;49.146;10.426;2023-02-20T05:12:08;9.82;;;3.60;;
74241;SDS011;62599;49.146;10.426;2023-02-20T05:14:34;6.03;;;2.28;;
74241;SDS011;62599;49.146;10.426;2023-02-20T05:16:59;9.37;;;2.63;;
74241;SDS011;62599;49.146;10.426;2023-02-20T05:19:25;4.13;;;2.60;;
74241;SDS011;62599;49.146;10.426;2023-02-20T05:21:50;6.32;;;2.72;;
74241;SDS011;62599;49.146;10.426;2023-02-20T05:24:34;5.93;;;2.28;;
74241;SDS011;62599;49.146;10.426;2023-02-20T05:26:59;8.40;;;2.27;;
74241;SDS011;62599;49.146;10.426;2023-02-20T05:29:25;2.38;;;1.98;;
74241;SDS011;62599;49.146;10.426;2023-02-20T05:31:50;12.73;;;3.30;;
74241;SDS011;62599;49.146;10.426;2023-02-20T05:34:16;3.70;;;1.93;;
74241;SDS011;62599;49.146;10.426;2023-02-20T05:36:41;6.53;;;2.55;;
74241;SDS011;62599;49.146;10.426;2023-02-20T05:39:07;3.35;;;1.42;;
74241;SDS011;62599;49.146;10.426;2023-02-20T05:41:32;2.70;;;1.75;;
74241;SDS011;62599;49.146;10.426;2023-02-20T05:43:57;5.53;;;2.33;;
74241;SDS011;62599;49.146;10.426;2023-02-20T05:46:24;2.40;;;1.08;;
74241;SDS011;62599;49.146;10.426;2023-02-20T05:48:51;2.00;;;1.13;;
74241;SDS011;62599;49.146;10.426;2023-02-20T05:51:23;5.57;;;2.17;;
74241;SDS011;62599;49.146;10.426;2023-02-20T05:53:50;5.88;;;2.28;;
74241;SDS011;62599;49.146;10.426;2023-02-20T05:56:16;9.52;;;2.42;;
74241;SDS011;62599;49.146;10.426;2023-02-20T05:58:42;3.20;;;1.65;;
74241;SDS011;62599;49.146;10.426;2023-02-20T06:01:08;5.20;;;1.55;;
74241;SDS011;62599;49.146;10.426;2023-02-20T06:03:39;2.03;;;1.67;;
74241;SDS011;62599;49.146;10.426;2023-02-20T06:06:05;3.10;;;1.97;;
74241;SDS011;62599;49.146;10.426;2023-02-20T06:08:30;4.30;;;1.52;;
74241;SDS011;62599;49.146;10.426;2023-02-20T06:10:55;2.13;;;1.57;;
74241;SDS011;62599;49.146;10.426;2023-02-20T06:13:21;3.63;;;1.87;;
74241;SDS011;62599;49.146;10.426;2023-02-20T06:15:46;6.28;;;2.28;;
74241;SDS011;62599;49.146;10.426;2023-02-20T06:18:12;4.13;;;1.43;;
74241;SDS011;62599;49.146;10.426;2023-02-20T06:20:37;5.90;;;2.37;;
74241;SDS011;62599;49.146;10.426;2023-02-20T06:23:02;2.70;;;1.73;;
74241;SDS011;62599;49.146;10.426;2023-02-20T06:25:29;9.10;;;1.83;;
74241;SDS011;62599;49.146;10.426;2023-02-20T06:27:54;10.65;;;2.08;;
74241;SDS011;62599;49.146;10.426;2023-02-20T06:30:19;2.57;;;1.50;;
74241;SDS011;62599;49.146;10.426;2023-02-20T06:32:45;7.18;;;1.27;;
74241;SDS011;62599;49.146;10.426;2023-02-20T06:35:10;5.22;;;1.63;;
74241;SDS011;62599;49.146;10.426;2023-02-20T06:37:36;2.75;;;2.28;;
74241;SDS011;62599;49.146;10.426;2023-02-20T06:40:02;5.25;;;1.85;;
74241;SDS011;62599;49.146;10.426;2023-02-20T06:42:29;4.03;;;2.40;;
74241;SDS011;62599;49.146;10.426;2023-02-20T06:44:54;5.50;;;1.97;;
74241;SDS011;62599;49.146;10.426;2023-02-20T06:47:19;3.33;;;1.58;;
74241;SDS011;62599;49.146;10.426;2023-02-20T06:49:45;5.57;;;2.47;;
74241;SDS011;62599;49.146;10.426;2023-02-20T06:52:11;7.82;;;1.27;;
74241;SDS011;62599;49.146;10.426;2023-02-20T06:54:37;3.17;;;1.98;;
74241;SDS011;62599;49.146;10.426;2023-02-20T06:57:04;2.17;;;1.20;;
74241;SDS011;62599;49.146;10.426;2023-02-20T06:59:29;3.88;;;1.70;;
74241;SDS011;62599;49.146;10.426;2023-02-20T07:01:55;8.80;;;0.70;;
74241;SDS011;62599;49.146;10.426;2023-02-20T07:04:21;4.70;;;2.70;;
74241;SDS011;62599;49.146;10.426;2023-02-20T07:06:48;6.28;;;1.77;;
74241;SDS011;62599;49.146;10.426;2023-02-20T07:09:14;4.43;;;1.58;;
74241;SDS011;62599;49.146;10.426;2023-02-20T07:11:40;2.38;;;1.38;;
74241;SDS011;62599;49.146;10.426;2023-02-20T07:14:06;2.03;;;1.02;;
74241;SDS011;62599;49.146;10.426;2023-02-20T07:16:31;1.00;;;0.67;;
74241;SDS011;62599;49.146;10.426;2023-02-20T07:18:57;3.60;;;1.27;;
74241;SDS011;62599;49.146;10.426;2023-02-20T07:21:23;0.85;;;0.73;;
74241;SDS011;62599;49.146;10.426;2023-02-20T07:23:49;2.72;;;0.73;;
74241;SDS011;62599;49.146;10.426;2023-02-20T07:26:22;4.15;;;1.20;;
74241;SDS011;62599;49.146;10.426;2023-02-20T07:28:49;5.30;;;2.08;;
74241;SDS011;62599;49.146;10.426;2023-02-20T07:31:14;1.05;;;0.95;;
74241;SDS011;62599;49.146;10.426;2023-02-20T07:33:39;5.37;;;1.97;;
74241;SDS011;62599;49.146;10.426;2023-02-20T07:36:07;6.45;;;1.75;;
74241;SDS011;62599;49.146;10.426;2023-02-20T07:38:34;5.82;;;1.88;;
74241;SDS011;62599;49.146;10.426;2023-02-20T07:40:59;2.57;;;1.00;;
74241;SDS011;62599;49.146;10.426;2023-02-20T07:43:24;6.80;;;2.40;;
74241;SDS011;62599;49.146;10.426;2023-02-20T07:45:50;4.17;;;1.17;;
74241;SDS011;62599;49.146;10.426;2023-02-20T07:48:15;4.15;;;1.08;;
74241;SDS011;62599;49.146;10.426;2023-02-20T07:50:40;1.83;;;1.03;;
74241;SDS011;62599;49.146;10.426;2023-02-20T07:53:12;1.90;;;1.48;;
74241;SDS011;62599;49.146;10.426;2023-02-20T07:55:39;2.22;;;1.50;;
74241;SDS011;62599;49.146;10.426;2023-02-20T07:58:07;1.67;;;0.90;;
74241;SDS011;62599;49.146;10.426;2023-02-20T08:00:32;5.40;;;2.05;;
74241;SDS011;62599;49.146;10.426;2023-02-20T08:02:58;5.80;;;1.75;;
74241;SDS011;62599;49.146;10.426;2023-02-20T08:05:24;5.18;;;1.33;;
74241;SDS011;62599;49.146;10.426;2023-02-20T08:07:50;5.05;;;2.03;;
74241;SDS011;62599;49.146;10.426;2023-02-20T08:10:17;1.88;;;0.85;;
74241;SDS011;62599;49.146;10.426;2023-02-20T08:12:50;2.55;;;1.63;;
74241;SDS011;62599;49.146;10.426;2023-02-20T08:15:17;2.95;;;1.40;;
74241;SDS011;62599;49.146;10.426;2023-02-20T08:17:43;2.97;;;1.15;;
74241;SDS011;62599;49.146;10.426;2023-02-20T08:20:09;2.03;;;1.20;;
74241;SDS011;62599;49.146;10.426;2023-02-20T08:22:35;1.88;;;0.77;;
74241;SDS011;62599;49.146;10.426;2023-02-20T08:25:01;2.78;;;1.30;;
74241;SDS011;62599;49.146;10.426;2023-02-20T08:27:28;9.00;;;1.58;;
74241;SDS011;62599;49.146;10.426;2023-02-20T08:29:53;3.17;;;1.20;;
74241;SDS011;62599;49.146;10.426;2023-02-20T08:32:19;2.92;;;1.05;;
74241;SDS011;62599;49.146;10.426;2023-02-20T08:34:44;3.88;;;1.13;;
74241;SDS011;62599;49.146;10.426;2023-02-20T08:37:09;4.10;;;2.53;;
74241;SDS011;62599;49.146;10.426;2023-02-20T08:39:35;5.43;;;2.53;;
74241;SDS011;62599;49.146;10.426;2023-02-20T08:42:01;2.33;;;1.15;;
74241;SDS011;62599;49.146;10.426;2023-02-20T08:44:27;7.22;;;1.65;;
74241;SDS011;62599;49.146;10.426;2023-02-20T08:46:53;1.92;;;1.25;;
74241;SDS011;62599;49.146;10.426;2023-02-20T08:49:18;1.33;;;0.85;;
74241;SDS011;62599;49.146;10.426;2023-02-20T08:51:45;2.28;;;1.27;;
74241;SDS011;62599;49.146;10.426;2023-02-20T08:54:12;1.30;;;0.95;;
74241;SDS011;62599;49.146;10.426;2023-02-20T08:56:39;2.72;;;0.93;;
74241;SDS011;62599;49.146;10.426;2023-02-20T08:59:06;3.35;;;1.38;;
74241;SDS011;62599;49.146;10.426;2023-02-20T09:01:33;7.88;;;1.67;;
74241;SDS011;62599;49.146;10.426;2023-02-20T09:03:59;2.65;;;1.33;;
74241;SDS011;62599;49.146;10.426;2023-02-20T09:06:26;7.90;;;1.13;;
74241;SDS011;62599;49.146;10.426;2023-02-20T09:08:54;1.85;;;0.88;;
74241;SDS011;62599;49.146;10.426;2023-02-20T09:11:20;2.03;;;0.90;;
74241;SDS011;62599;49.146;10.426;2023-02-20T09:13:46;10.63;;;2.15;;
74241;SDS011;62599;49.146;10.426;2023-02-20T09:16:17;1.58;;;1.05;;
74241;SDS011;62599;49.146;10.426;2023-02-20T09:18:44;5.90;;;1.60;;
74241;SDS011;62599;49.146;10.426;2023-02-20T09:21:10;3.60;;;1.25;;
74241;SDS011;62599;49.146;10.426;2023-02-20T09:23:37;1.85;;;1.02;;
74241;SDS011;62599;49.146;10.426;2023-02-20T09:26:06;4.22;;;1.42;;
74241;SDS011;62599;49.146;10.426;2023-02-20T09:28:31;4.55;;;1.17;;
74241;SDS011;62599;49.146;10.426;2023-02-20T09:30:57;4.85;;;1.23;;
74241;SDS011;62599;49.146;10.426;2023-02-20T09:33:25;3.17;;;1.33;;
74241;SDS011;62599;49.146;10.426;2023-02-20T09:35:51;2.38;;;0.70;;
74241;SDS011;62599;49.146;10.426;2023-02-20T09:38:18;2.75;;;1.45;;
74241;SDS011;62599;49.146;10.426;2023-02-20T09:40:48;2.13;;;1.25;;
74241;SDS011;62599;49.146;10.426;2023-02-20T09:45:53;1.75;;;0.95;;
74241;SDS011;62599;49.146;10.426;2023-02-20T09:51:13;3.83;;;1.52;;
74241;SDS011;62599;49.146;10.426;2023-02-20T09:53:48;3.75;;;1.25;;
74241;SDS011;62599;49.146;10.426;2023-02-20T09:56:27;2.28;;;1.00;;
74241;SDS011;62599;49.146;10.426;2023-02-20T10:01:50;2.97;;;0.98;;
74241;SDS011;62599;49.146;10.426;2023-02-20T10:04:33;3.00;;;1.63;;
74241;SDS011;62599;49.146;10.426;2023-02-20T10:07:25;3.05;;;1.27;;
74241;SDS011;62599;49.146;10.426;2023-02-20T10:09:51;3.13;;;1.65;;
74241;SDS011;62599;49.146;10.426;2023-02-20T10:23:52;2.65;;;1.55;;
74241;SDS011;62599;49.146;10.426;2023-02-20T10:26:34;1.52;;;0.80;;
74241;SDS011;62599;49.146;10.426;2023-02-20T10:29:14;1.73;;;0.98;;
74241;SDS011;62599;49.146;10.426;2023-02-20T10:31:45;0.98;;;0.60;;
74241;SDS011;62599;49.146;10.426;2023-02-20T10:34:19;1.30;;;1.00;;
74241;SDS011;62599;49.146;10.426;2023-02-20T10:36:54;1.05;;;0.73;;
74241;SDS011;62599;49.146;10.426;2023-02-20T10:39:25;4.25;;;1.30;;
74241;SDS011;62599;49.146;10.426;2023-02-20T10:42:00;7.82;;;0.82;;
74241;SDS011;62599;49.146;10.426;2023-02-20T10:44:49;2.13;;;1.20;;
74241;SDS011;62599;49.146;10.426;2023-02-20T10:49:58;5.03;;;0.80;;
74241;SDS011;62599;49.146;10.426;2023-02-20T10:52:35;1.55;;;0.80;;
74241;SDS011;62599;49.146;10.426;2023-02-20T10:55:13;3.17;;;1.23;;
74241;SDS011;62599;49.146;10.426;2023-02-20T11:00:39;6.97;;;1.63;;
74241;SDS011;62599;49.146;10.426;2023-02-20T11:03:31;2.33;;;1.00;;
74241;SDS011;62599;49.146;10.426;2023-02-20T11:06:08;12.10;;;2.50;;
74241;SDS011;62599;49.146;10.426;2023-02-20T11:08:37;3.17;;;1.20;;
74241;SDS011;62599;49.146;10.426;2023-02-20T11:13:50;3.38;;;1.50;;
74241;SDS011;62599;49.146;10.426;2023-02-20T11:16:20;3.58;;;1.02;;
74241;SDS011;62599;49.146;10.426;2023-02-20T11:18:48;5.20;;;0.85;;
74241;SDS011;62599;49.146;10.426;2023-02-20T11:21:34;3.25;;;1.25;;
74241;SDS011;62599;49.146;10.426;2023-02-20T11:24:18;5.63;;;1.70;;
74241;SDS011;62599;49.146;10.426;2023-02-20T11:26:48;2.65;;;1.27;;
74241;SDS011;62599;49.146;10.426;2023-02-20T11:29:19;2.05;;;0.90;;
74241;SDS011;62599;49.146;10.426;2023-02-20T11:31:46;4.45;;;1.42;;
74241;SDS011;62599;49.146;10.426;2023-02-20T11:34:21;5.03;;;1.35;;
74241;SDS011;62599;49.146;10.426;2023-02-20T11:36:53;2.20;;;1.13;;
74241;SDS011;62599;49.146;10.426;2023-02-20T11:39:28;4.57;;;1.45;;
74241;SDS011;62599;49.146;10.426;2023-02-20T11:42:11;5.85;;;1.45;;
74241;SDS011;62599;49.146;10.426;2023-02-20T11:44:40;4.30;;;1.98;;
74241;SDS011;62599;49.146;10.426;2023-02-20T11:49:45;1.25;;;1.15;;
74241;SDS011;62599;49.146;10.426;2023-02-20T11:52:31;3.55;;;0.82;;
74241;SDS011;62599;49.146;10.426;2023-02-20T11:55:11;2.83;;;0.83;;
74241;SDS011;62599;49.146;10.426;2023-02-20T11:57:47;1.48;;;0.85;;
74241;SDS011;62599;49.146;10.426;2023-02-20T12:00:15;3.08;;;1.15;;
74241;SDS011;62599;49.146;10.426;2023-02-20T12:02:47;2.05;;;0.88;;
74241;SDS011;62599;49.146;10.426;2023-02-20T12:05:18;2.08;;;0.85;;
74241;SDS011;62599;49.146;10.426;2023-02-20T12:13:02;6.82;;;2.13;;
74241;SDS011;62599;49.146;10.426;2023-02-20T12:15:29;7.32;;;1.65;;
74241;SDS011;62599;49.146;10.426;2023-02-20T12:18:16;10.73;;;3.28;;
74241;SDS011;62599;49.146;10.426;2023-02-20T12:24:11;8.07;;;1.63;;
74241;SDS011;62599;49.146;10.426;2023-02-20T12:26:53;5.25;;;2.33;;
74241;SDS011;62599;49.146;10.426;2023-02-20T12:37:47;2.72;;;1.38;;
74241;SDS011;62599;49.146;10.426;2023-02-20T12:51:01;1.95;;;0.70;;
74241;SDS011;62599;49.146;10.426;2023-02-20T12:57:04;4.60;;;1.35;;
74241;SDS011;62599;49.146;10.426;2023-02-20T12:59:57;2.05;;;1.17;;
74241;SDS011;62599;49.146;10.426;2023-02-20T13:02:36;5.85;;;0.75;;
74241;SDS011;62599;49.146;10.426;2023-02-20T13:05:08;2.38;;;0.77;;
74241;SDS011;62599;49.146;10.426;2023-02-20T13:10:27;1.20;;;0.65;;
74241;SDS011;62599;49.146;10.426;2023-02-20T13:12:56;1.02;;;0.65;;
74241;SDS011;62599;49.146;10.426;2023-02-20T13:15:37;0.85;;;0.30;;
74241;SDS011;62599;49.146;10.426;2023-02-20T13:20:46;1.45;;;0.63;;
74241;SDS011;62599;49.146;10.426;2023-02-20T13:25:40;1.03;;;0.60;;
74241;SDS011;62599;49.146;10.426;2023-02-20T13:30:36;1.13;;;0.70;;
74241;SDS011;62599;49.146;10.426;2023-02-20T13:33:16;0.93;;;0.50;;
74241;SDS011;62599;49.146;10.426;2023-02-20T13:35:51;2.33;;;0.95;;
74241;SDS011;62599;49.146;10.426;2023-02-20T13:38:19;1.48;;;0.40;;
74241;SDS011;62599;49.146;10.426;2023-02-20T13:45:45;1.77;;;0.50;;
74241;SDS011;62599;49.146;10.426;2023-02-20T13:50:43;1.77;;;0.75;;
74241;SDS011;62599;49.146;10.426;2023-02-20T13:53:08;2.90;;;0.57;;
74241;SDS011;62599;49.146;10.426;2023-02-20T13:55:34;1.43;;;0.80;;
74241;SDS011;62599;49.146;10.426;2023-02-20T13:58:12;0.43;;;0.43;;
74241;SDS011;62599;49.146;10.426;2023-02-20T14:00:50;2.45;;;0.85;;
74241;SDS011;62599;49.146;10.426;2023-02-20T14:05:59;1.02;;;0.50;;
74241;SDS011;62599;49.146;10.426;2023-02-20T14:08:25;3.88;;;0.90;;
74241;SDS011;62599;49.146;10.426;2023-02-20T14:10:50;2.50;;;0.53;;
74241;SDS011;62599;49.146;10.426;2023-02-20T14:13:20;1.40;;;0.37;;
74241;SDS011;62599;49.146;10.426;2023-02-20T14:18:31;1.25;;;0.28;;
74241;SDS011;62599;49.146;10.426;2023-02-20T14:21:15;2.33;;;1.00;;
74241;SDS011;62599;49.146;10.426;2023-02-20T14:23:43;2.10;;;0.50;;
74241;SDS011;62599;49.146;10.426;2023-02-20T14:26:20;1.83;;;0.38;;
74241;SDS011;62599;49.146;10.426;2023-02-20T14:28:46;2.55;;;0.55;;
74241;SDS011;62599;49.146;10.426;2023-02-20T14:33:49;3.28;;;0.82;;
74241;SDS011;62599;49.146;10.426;2023-02-20T14:39:59;1.10;;;0.65;;
74241;SDS011;62599;49.146;10.426;2023-02-20T14:42:05;1.10;;;0.45;;
74241;SDS011;62599;49.146;10.426;2023-02-20T14:44:39;0.80;;;0.32;;
74241;SDS011;62599;49.146;10.426;2023-02-20T14:47:06;0.95;;;0.45;;
74241;SDS011;62599;49.146;10.426;2023-02-20T14:49:34;2.72;;;0.60;;
74241;SDS011;62599;49.146;10.426;2023-02-20T14:54:34;1.98;;;0.90;;
74241;SDS011;62599;49.146;10.426;2023-02-20T14:57:04;1.30;;;0.35;;
74241;SDS011;62599;49.146;10.426;2023-02-20T14:59:33;1.65;;;0.60;;
74241;SDS011;62599;49.146;10.426;2023-02-20T15:02:09;1.58;;;0.43;;
74241;SDS011;62599;49.146;10.426;2023-02-20T15:04:52;1.77;;;0.40;;
74241;SDS011;62599;49.146;10.426;2023-02-20T15:07:20;2.78;;;0.60;;
74241;SDS011;62599;49.146;10.426;2023-02-20T15:09:49;3.40;;;0.80;;
74241;SDS011;62599;49.146;10.426;2023-02-20T15:15:06;2.70;;;1.98;;
74241;SDS011;62599;49.146;10.426;2023-02-20T15:17:34;1.55;;;0.32;;
74241;SDS011;62599;49.146;10.426;2023-02-20T15:20:48;0.43;;;0.40;;
74241;SDS011;62599;49.146;10.426;2023-02-20T15:23:07;0.85;;;0.35;;
74241;SDS011;62599;49.146;10.426;2023-02-20T15:25:45;0.93;;;0.80;;
74241;SDS011;62599;49.146;10.426;2023-02-20T15:33:34;0.30;;;0.30;;
74241;SDS011;62599;49.146;10.426;2023-02-20T15:36:01;1.10;;;0.93;;
74241;SDS011;62599;49.146;10.426;2023-02-20T15:38:29;0.50;;;0.43;;
74241;SDS011;62599;49.146;10.426;2023-02-20T15:40:57;2.90;;;0.52;;
74241;SDS011;62599;49.146;10.426;2023-02-20T15:46:29;4.43;;;0.70;;
74241;SDS011;62599;49.146;10.426;2023-02-20T15:48:55;0.20;;;0.20;;
74241;SDS011;62599;49.146;10.426;2023-02-20T15:51:21;0.63;;;0.37;;
74241;SDS011;62599;49.146;10.426;2023-02-20T15:53:47;1.30;;;0.20;;
74241;SDS011;62599;49.146;10.426;2023-02-20T15:56:14;2.80;;;0.25;;
74241;SDS011;62599;49.146;10.426;2023-02-20T15:58:41;0.65;;;0.38;;
74241;SDS011;62599;49.146;10.426;2023-02-20T16:01:07;0.80;;;0.50;;
74241;SDS011;62599;49.146;10.426;2023-02-20T16:03:33;1.45;;;0.28;;
74241;SDS011;62599;49.146;10.426;2023-02-20T16:05:58;0.45;;;0.43;;
74241;SDS011;62599;49.146;10.426;2023-02-20T16:08:24;3.10;;;0.35;;
74241;SDS011;62599;49.146;10.426;2023-02-20T16:10:50;0.60;;;0.32;;
74241;SDS011;62599;49.146;10.426;2023-02-20T16:13:37;0.63;;;0.40;;
74241;SDS011;62599;49.146;10.426;2023-02-20T16:18:41;1.73;;;0.60;;
74241;SDS011;62599;49.146;10.426;2023-02-20T16:21:08;0.40;;;0.30;;
74241;SDS011;62599;49.146;10.426;2023-02-20T16:23:36;1.92;;;0.63;;
74241;SDS011;62599;49.146;10.426;2023-02-20T16:26:04;0.60;;;0.60;;
74241;SDS011;62599;49.146;10.426;2023-02-20T16:28:31;1.63;;;0.40;;
74241;SDS011;62599;49.146;10.426;2023-02-20T16:30:56;2.63;;;0.47;;
74241;SDS011;62599;49.146;10.426;2023-02-20T16:33:22;0.73;;;0.60;;
74241;SDS011;62599;49.146;10.426;2023-02-20T16:35:48;0.70;;;0.40;;
74241;SDS011;62599;49.146;10.426;2023-02-20T16:38:14;0.80;;;0.65;;
74241;SDS011;62599;49.146;10.426;2023-02-20T16:40:43;4.43;;;0.50;;
74241;SDS011;62599;49.146;10.426;2023-02-20T16:43:10;0.43;;;0.25;;
74241;SDS011;62599;49.146;10.426;2023-02-20T16:45:37;0.38;;;0.28;;
74241;SDS011;62599;49.146;10.426;2023-02-20T16:48:02;0.82;;;0.40;;
74241;SDS011;62599;49.146;10.426;2023-02-20T16:50:29;0.77;;;0.50;;
74241;SDS011;62599;49.146;10.426;2023-02-20T16:52:56;0.50;;;0.50;;
74241;SDS011;62599;49.146;10.426;2023-02-20T16:55:32;1.15;;;0.52;;
74241;SDS011;62599;49.146;10.426;2023-02-20T16:58:05;3.08;;;0.38;;
74241;SDS011;62599;49.146;10.426;2023-02-20T17:00:31;6.95;;;2.38;;
74241;SDS011;62599;49.146;10.426;2023-02-20T17:03:04;0.45;;;0.35;;
74241;SDS011;62599;49.146;10.426;2023-02-20T17:05:31;0.57;;;0.43;;
74241;SDS011;62599;49.146;10.426;2023-02-20T17:07:58;0.88;;;0.32;;
74241;SDS011;62599;49.146;10.426;2023-02-20T17:10:24;1.88;;;0.32;;
74241;SDS011;62599;49.146;10.426;2023-02-20T17:12:51;1.23;;;0.70;;